createdAt,value
2023-05-03T00:13:22.464Z,1.92
2023-05-03T00:15:50.179Z,1.80
2023-05-03T00:18:17.907Z,2.03
2023-05-03T00:20:47.579Z,2.00
2023-05-03T00:23:15.057Z,1.88
2023-05-03T00:25:42.703Z,1.80
2023-05-03T00:31:09.410Z,1.95
2023-05-03T00:33:37.850Z,2.33
2023-05-03T00:36:11.299Z,1.95
2023-05-03T00:38:38.844Z,1.83
2023-05-03T00:41:06.816Z,1.73
2023-05-03T00:43:35.462Z,1.75
2023-05-03T00:46:15.302Z,1.33
2023-05-03T00:48:44.064Z,1.30
2023-05-03T00:51:14.184Z,1.70
2023-05-03T00:53:41.917Z,1.77
2023-05-03T00:56:11.304Z,1.40
2023-05-03T00:58:40.419Z,1.13
2023-05-03T01:01:08.859Z,1.50
2023-05-03T01:03:39.370Z,1.50
2023-05-03T01:06:09.673Z,1.50
2023-05-03T01:08:41.347Z,1.40
2023-05-03T01:11:09.748Z,1.23
2023-05-03T01:13:42.994Z,1.13
2023-05-03T01:16:15.857Z,1.70
2023-05-03T01:18:46.716Z,1.75
2023-05-03T01:21:16.094Z,1.35
2023-05-03T01:23:47.629Z,1.73
2023-05-03T01:26:23.455Z,1.50
2023-05-03T01:28:51.395Z,1.33
2023-05-03T01:31:22.840Z,1.58
2023-05-03T01:33:54.771Z,1.38
2023-05-03T01:36:24.474Z,1.42
2023-05-03T01:38:52.065Z,1.40
2023-05-03T01:41:21.284Z,1.80
2023-05-03T01:43:50.621Z,2.38
2023-05-03T01:46:18.154Z,1.63
2023-05-03T01:48:45.788Z,1.88
2023-05-03T01:51:13.343Z,2.22
2023-05-03T01:53:41.797Z,2.28
2023-05-03T01:56:09.573Z,2.03
2023-05-03T01:58:37.266Z,1.80
2023-05-03T02:01:08.025Z,1.63
2023-05-03T02:03:35.839Z,2.25
2023-05-03T02:06:03.406Z,1.77
2023-05-03T02:08:30.996Z,2.40
2023-05-03T02:10:58.838Z,1.70
2023-05-03T02:13:26.302Z,1.33
2023-05-03T02:15:55.494Z,1.90
2023-05-03T02:18:24.680Z,3.10
2023-05-03T02:20:52.436Z,1.70
2023-05-03T02:23:19.944Z,2.03
2023-05-03T02:25:47.589Z,1.70
2023-05-03T02:28:15.068Z,1.40
2023-05-03T02:30:43.272Z,2.05
2023-05-03T02:33:11.019Z,1.60
2023-05-03T02:35:39.873Z,1.63
2023-05-03T02:38:07.596Z,1.75
2023-05-03T02:40:35.189Z,2.10
2023-05-03T02:43:03.832Z,1.95
2023-05-03T02:45:31.318Z,1.75
2023-05-03T02:47:59.514Z,3.05
2023-05-03T02:50:27.410Z,2.33
2023-05-03T02:52:56.231Z,3.15
2023-05-03T02:55:23.737Z,2.83
2023-05-03T02:57:51.256Z,2.25
2023-05-03T03:00:19.132Z,2.60
2023-05-03T03:02:46.788Z,2.15
2023-05-03T03:05:14.348Z,2.17
2023-05-03T03:07:42.140Z,1.67
2023-05-03T03:10:11.592Z,1.88
2023-05-03T03:12:39.419Z,1.73
2023-05-03T03:15:07.642Z,2.50
2023-05-03T03:17:38.932Z,1.50
2023-05-03T03:20:07.467Z,1.80
2023-05-03T03:22:34.924Z,2.17
2023-05-03T03:25:02.412Z,1.70
2023-05-03T03:27:31.231Z,1.85
2023-05-03T03:29:58.706Z,1.85
2023-05-03T03:32:26.280Z,2.15
2023-05-03T03:34:53.904Z,1.55
2023-05-03T03:37:22.064Z,1.98
2023-05-03T03:39:49.685Z,1.58
2023-05-03T03:42:18.451Z,1.70
2023-05-03T03:44:47.953Z,1.80
2023-05-03T03:47:15.558Z,2.00
2023-05-03T03:49:43.102Z,1.98
2023-05-03T03:52:10.875Z,2.20
2023-05-03T03:54:38.412Z,1.88
2023-05-03T03:57:06.064Z,2.20
2023-05-03T03:59:33.723Z,2.63
2023-05-03T04:02:02.581Z,1.83
2023-05-03T04:04:31.755Z,1.90
2023-05-03T04:06:59.467Z,2.08
2023-05-03T04:09:26.963Z,1.60
2023-05-03T04:11:54.585Z,2.15
2023-05-03T04:14:22.279Z,1.50
2023-05-03T04:16:50.294Z,1.73
2023-05-03T04:19:19.487Z,1.63
2023-05-03T04:21:47.005Z,2.00
2023-05-03T04:24:17.856Z,2.05
2023-05-03T04:26:45.446Z,1.60
2023-05-03T04:29:12.940Z,1.50
2023-05-03T04:34:33.512Z,2.00
2023-05-03T04:37:01.526Z,1.63
2023-05-03T04:39:29.058Z,1.70
2023-05-03T04:41:57.297Z,1.48
2023-05-03T04:44:39.161Z,1.92
2023-05-03T04:47:17.817Z,2.00
2023-05-03T04:50:06.628Z,2.05
2023-05-03T04:52:34.537Z,2.30
2023-05-03T04:55:03.229Z,1.63
2023-05-03T04:57:32.241Z,2.03
2023-05-03T04:59:59.834Z,1.48
2023-05-03T05:02:27.531Z,1.65
2023-05-03T05:04:57.799Z,1.40
2023-05-03T05:07:25.784Z,2.38
2023-05-03T05:09:53.703Z,1.67
2023-05-03T05:12:21.212Z,1.55
2023-05-03T05:14:48.779Z,1.75
2023-05-03T05:17:16.361Z,1.60
2023-05-03T05:19:43.998Z,1.65
2023-05-03T05:22:15.204Z,1.50
2023-05-03T05:24:42.736Z,2.15
2023-05-03T05:27:10.561Z,1.98
2023-05-03T05:29:38.728Z,1.65
2023-05-03T05:32:06.491Z,1.73
2023-05-03T05:34:43.717Z,2.10
2023-05-03T05:37:17.763Z,1.80
2023-05-03T05:39:45.275Z,1.58
2023-05-03T05:42:14.532Z,1.38
2023-05-03T05:44:42.065Z,1.50
2023-05-03T05:47:10.464Z,1.30
2023-05-03T05:49:38.011Z,1.85
2023-05-03T05:54:59.769Z,3.33
2023-05-03T05:57:27.210Z,2.25
2023-05-03T05:59:54.720Z,1.85
2023-05-03T06:02:24.982Z,2.08
2023-05-03T06:04:52.727Z,1.70
2023-05-03T06:07:20.284Z,1.90
2023-05-03T06:09:49.760Z,1.95
2023-05-03T06:12:21.598Z,2.05
2023-05-03T06:15:01.281Z,2.63
2023-05-03T06:17:31.820Z,2.70
2023-05-03T06:19:59.560Z,2.28
2023-05-03T06:22:27.031Z,3.00
2023-05-03T06:24:55.840Z,1.98
2023-05-03T06:27:24.748Z,2.20
2023-05-03T06:29:52.224Z,1.75
2023-05-03T06:35:12.872Z,1.95
2023-05-03T06:37:40.562Z,1.42
2023-05-03T06:40:09.113Z,1.40
2023-05-03T06:42:37.986Z,2.00
2023-05-03T06:45:06.127Z,1.20
2023-05-03T06:47:33.852Z,1.17
2023-05-03T06:50:01.633Z,2.25
2023-05-03T06:52:29.396Z,1.90
2023-05-03T06:54:56.971Z,1.30
2023-05-03T06:57:27.054Z,1.45
2023-05-03T06:59:57.684Z,2.95
2023-05-03T07:02:26.049Z,1.73
2023-05-03T07:04:53.723Z,1.50
2023-05-03T07:07:21.458Z,1.10
2023-05-03T07:09:49.127Z,1.13
2023-05-03T07:12:17.217Z,1.42
2023-05-03T07:14:44.833Z,1.30
2023-05-03T07:17:13.978Z,1.38
2023-05-03T07:19:43.953Z,1.25
2023-05-03T07:22:11.764Z,1.23
2023-05-03T07:24:40.165Z,1.45
2023-05-03T07:32:51.874Z,1.75
2023-05-03T07:35:19.565Z,0.93
2023-05-03T07:37:47.128Z,1.20
2023-05-03T07:40:16.142Z,1.50
2023-05-03T07:42:43.854Z,0.95
2023-05-03T07:45:11.565Z,1.00
2023-05-03T07:47:40.085Z,1.00
2023-05-03T07:50:09.483Z,0.90
2023-05-03T07:52:37.277Z,1.20
2023-05-03T07:55:09.007Z,1.00
2023-05-03T07:57:36.607Z,1.60
2023-05-03T08:00:06.179Z,1.23
2023-05-03T08:02:34.013Z,1.13
2023-05-03T08:05:01.904Z,1.25
2023-05-03T08:07:31.041Z,1.35
2023-05-03T08:09:58.716Z,1.50
2023-05-03T08:12:26.879Z,1.15
2023-05-03T08:14:56.266Z,1.17
2023-05-03T08:17:24.100Z,1.30
2023-05-03T08:19:52.222Z,1.40
2023-05-03T08:22:20.628Z,1.60
2023-05-03T08:27:42.221Z,1.40
2023-05-03T08:30:10.727Z,1.20
2023-05-03T08:32:38.498Z,1.38
2023-05-03T08:37:59.279Z,1.63
2023-05-03T08:40:29.150Z,1.52
2023-05-03T08:42:57.301Z,2.55
2023-05-03T08:54:01.278Z,1.42
2023-05-03T08:56:31.159Z,1.30
2023-05-03T09:04:49.437Z,1.25
2023-05-03T09:07:17.191Z,1.60
2023-05-03T09:09:47.127Z,1.50
2023-05-03T09:18:18.417Z,1.40
2023-05-03T09:20:51.932Z,1.67
2023-05-03T09:25:48.862Z,1.63
2023-05-03T09:28:18.133Z,1.77
2023-05-03T09:30:47.094Z,1.50
2023-05-03T09:33:20.430Z,1.38
2023-05-03T09:41:44.395Z,1.30
2023-05-03T09:44:13.239Z,1.23
2023-05-03T09:46:40.718Z,1.40
2023-05-03T09:52:52.113Z,1.38
2023-05-03T09:55:21.272Z,1.48
2023-05-03T09:58:14.616Z,1.60
2023-05-03T10:00:47.577Z,1.40
2023-05-03T10:03:24.723Z,1.63
2023-05-03T10:05:52.835Z,1.67
2023-05-03T10:11:18.442Z,1.08
2023-05-03T10:13:46.162Z,2.33
2023-05-03T10:16:18.105Z,1.85
2023-05-03T10:18:49.181Z,2.92
2023-05-03T10:21:20.960Z,1.63
2023-05-03T10:27:00.174Z,1.50
2023-05-03T10:29:49.797Z,1.50
2023-05-03T10:32:48.307Z,1.75
2023-05-03T10:35:16.544Z,1.60
2023-05-03T10:37:45.572Z,1.48
2023-05-03T10:40:14.154Z,1.52
2023-05-03T10:42:44.555Z,1.65
2023-05-03T10:45:21.680Z,1.38
2023-05-03T10:48:04.109Z,2.28
2023-05-03T10:50:33.111Z,1.40
2023-05-03T10:53:00.866Z,1.67
2023-05-03T10:55:28.432Z,1.55
2023-05-03T10:57:57.646Z,1.58
2023-05-03T11:00:28.825Z,1.40
2023-05-03T11:03:07.537Z,1.50
2023-05-03T11:05:37.142Z,1.70
2023-05-03T11:08:12.150Z,1.88
2023-05-03T11:10:39.887Z,1.63
2023-05-03T11:13:07.811Z,1.67
2023-05-03T11:15:35.889Z,1.50
2023-05-03T11:18:03.608Z,1.70
2023-05-03T11:20:31.167Z,1.52
2023-05-03T11:23:00.128Z,1.77
2023-05-03T11:25:28.073Z,1.77
2023-05-03T11:27:55.575Z,1.45
2023-05-03T11:30:23.541Z,1.67
2023-05-03T11:32:51.426Z,1.60
2023-05-03T11:35:19.816Z,1.75
2023-05-03T11:37:47.629Z,1.40
2023-05-03T11:40:18.192Z,1.58
2023-05-03T11:42:52.991Z,3.22
2023-05-03T11:45:23.042Z,1.50
2023-05-03T11:47:51.229Z,2.40
2023-05-03T11:50:19.422Z,1.70
2023-05-03T11:52:47.038Z,1.50
2023-05-03T11:55:15.274Z,1.75
2023-05-03T11:57:44.507Z,1.67
2023-05-03T12:00:14.482Z,1.83
2023-05-03T12:02:45.925Z,1.50
2023-05-03T12:05:14.491Z,1.52
2023-05-03T12:07:43.043Z,1.88
2023-05-03T12:10:20.665Z,1.80
2023-05-03T12:13:09.907Z,1.90
2023-05-03T12:15:40.629Z,1.70
2023-05-03T12:18:10.106Z,1.60
2023-05-03T12:23:10.965Z,1.60
2023-05-03T12:25:40.595Z,1.73
2023-05-03T12:28:20.366Z,1.77
2023-05-03T12:30:48.949Z,1.92
2023-05-03T12:33:21.809Z,1.95
2023-05-03T12:35:52.789Z,1.50
2023-05-03T12:38:23.901Z,1.75
2023-05-03T12:40:53.619Z,1.77
2023-05-03T12:43:23.131Z,2.00
2023-05-03T12:46:02.565Z,1.77
2023-05-03T12:48:39.041Z,2.05
2023-05-03T12:51:19.462Z,1.70
2023-05-03T12:53:48.090Z,1.75
2023-05-03T12:56:16.534Z,1.90
2023-05-03T13:02:17.341Z,2.38
2023-05-03T13:04:41.328Z,1.80
2023-05-03T13:07:03.100Z,1.92
2023-05-03T13:10:12.235Z,1.70
2023-05-03T13:12:20.780Z,2.13
2023-05-03T13:14:49.913Z,2.25
2023-05-03T13:17:17.788Z,2.63
2023-05-03T13:19:47.074Z,2.10
2023-05-03T13:22:14.856Z,1.90
2023-05-03T13:24:42.683Z,1.83
2023-05-03T13:27:11.395Z,2.17
2023-05-03T13:29:39.189Z,1.73
2023-05-03T13:32:09.460Z,2.10
2023-05-03T13:34:38.881Z,3.28
2023-05-03T13:37:06.993Z,2.70
2023-05-03T13:39:37.483Z,2.33
2023-05-03T13:42:05.141Z,2.17
2023-05-03T13:44:32.960Z,2.17
2023-05-03T13:47:01.523Z,3.15
2023-05-03T13:49:30.536Z,2.00
2023-05-03T13:51:58.388Z,2.35
2023-05-03T13:54:25.965Z,2.55
2023-05-03T13:56:53.744Z,2.22
2023-05-03T13:59:21.375Z,2.30
2023-05-03T14:01:49.134Z,2.05
2023-05-03T14:04:16.954Z,2.08
2023-05-03T14:06:45.911Z,2.10
2023-05-03T14:09:13.967Z,1.85
2023-05-03T14:11:41.888Z,3.38
2023-05-03T14:14:09.982Z,1.85
2023-05-03T14:16:41.258Z,2.47
2023-05-03T14:19:10.709Z,2.30
2023-05-03T14:21:39.083Z,2.20
2023-05-03T14:24:08.161Z,2.45
2023-05-03T14:26:36.931Z,2.42
2023-05-03T14:29:05.808Z,2.20
2023-05-03T14:31:34.101Z,2.45
2023-05-03T14:34:01.833Z,2.40
2023-05-03T14:36:33.375Z,2.67
2023-05-03T14:39:04.309Z,2.50
2023-05-03T14:41:34.520Z,2.67
2023-05-03T14:44:02.205Z,4.72
2023-05-03T14:46:29.778Z,3.25
2023-05-03T14:48:57.939Z,2.88
2023-05-03T14:51:25.950Z,2.70
2023-05-03T14:53:53.577Z,3.22
2023-05-03T14:56:21.345Z,2.75
2023-05-03T14:58:50.666Z,3.15
2023-05-03T15:01:19.277Z,3.95
2023-05-03T15:03:47.048Z,2.63
2023-05-03T15:06:15.225Z,2.65
2023-05-03T15:08:42.775Z,2.78
2023-05-03T15:11:12.924Z,2.53
2023-05-03T15:13:40.661Z,2.47
2023-05-03T15:16:09.650Z,2.40
2023-05-03T15:18:37.207Z,3.20
2023-05-03T15:21:04.874Z,2.90
2023-05-03T15:23:32.877Z,2.80
2023-05-03T15:26:00.578Z,2.30
2023-05-03T15:28:28.193Z,4.03
2023-05-03T15:30:55.756Z,2.78
2023-05-03T15:33:24.724Z,2.55
2023-05-03T15:35:52.327Z,2.85
2023-05-03T15:38:19.872Z,3.30
2023-05-03T15:40:47.441Z,2.90
2023-05-03T15:43:15.221Z,2.75
2023-05-03T15:45:42.806Z,2.53
2023-05-03T15:48:10.588Z,2.90
2023-05-03T15:50:39.504Z,3.03
2023-05-03T15:53:07.424Z,2.70
2023-05-03T15:55:35.003Z,2.75
2023-05-03T15:58:02.498Z,2.60
2023-05-03T16:00:30.430Z,2.92
2023-05-03T16:02:58.193Z,4.70
2023-05-03T16:05:25.909Z,2.70
2023-05-03T16:07:54.897Z,2.45
2023-05-03T16:10:24.765Z,3.13
2023-05-03T16:12:52.728Z,2.97
2023-05-03T16:15:20.355Z,3.08
2023-05-03T16:17:48.509Z,3.00
2023-05-03T16:20:16.119Z,2.55
2023-05-03T16:22:44.133Z,2.90
2023-05-03T16:25:14.426Z,2.22
2023-05-03T16:27:42.089Z,2.45
2023-05-03T16:30:10.465Z,2.17
2023-05-03T16:32:38.376Z,3.05
2023-05-03T16:35:06.342Z,2.10
2023-05-03T16:37:37.090Z,2.50
2023-05-03T16:40:10.483Z,2.85
2023-05-03T16:42:39.420Z,2.30
2023-05-03T16:45:10.851Z,2.33
2023-05-03T16:47:41.242Z,3.70
2023-05-03T16:50:09.276Z,2.33
2023-05-03T16:52:40.379Z,2.42
2023-05-03T16:55:09.087Z,2.38
2023-05-03T16:57:37.131Z,2.72
2023-05-03T17:00:09.251Z,2.95
2023-05-03T17:02:37.602Z,2.63
2023-05-03T17:05:06.156Z,3.03
2023-05-03T17:07:33.966Z,2.20
2023-05-03T17:10:01.642Z,2.70
2023-05-03T17:12:29.337Z,2.53
2023-05-03T17:14:56.969Z,2.20
2023-05-03T17:17:25.872Z,2.35
2023-05-03T17:19:53.598Z,2.38
2023-05-03T17:22:21.389Z,2.17
2023-05-03T17:24:49.001Z,2.63
2023-05-03T17:27:16.600Z,2.67
2023-05-03T17:29:44.335Z,3.00
2023-05-03T17:32:11.815Z,2.55
2023-05-03T17:34:40.728Z,2.40
2023-05-03T17:37:08.530Z,4.35
2023-05-03T17:39:36.040Z,3.03
2023-05-03T17:42:03.875Z,2.58
2023-05-03T17:44:31.640Z,2.80
2023-05-03T17:47:00.510Z,4.28
2023-05-03T17:49:28.043Z,3.08
2023-05-03T17:51:57.133Z,3.15
2023-05-03T17:54:25.337Z,3.45
2023-05-03T17:56:53.004Z,3.28
2023-05-03T17:59:20.585Z,3.38
2023-05-03T18:01:48.437Z,3.08
2023-05-03T18:04:18.975Z,3.33
2023-05-03T18:06:46.702Z,3.60
2023-05-03T18:09:16.405Z,3.85
2023-05-03T18:11:45.111Z,3.13
2023-05-03T18:14:12.724Z,3.47
2023-05-03T18:16:42.364Z,3.30
2023-05-03T18:19:10.126Z,3.22
2023-05-03T18:21:37.683Z,3.83
2023-05-03T18:24:05.519Z,3.65
2023-05-03T18:26:34.371Z,3.65
2023-05-03T18:29:02.161Z,3.53
2023-05-03T18:31:29.707Z,2.95
2023-05-03T18:33:57.242Z,3.08
2023-05-03T18:36:27.456Z,3.15
2023-05-03T18:38:55.076Z,2.67
2023-05-03T18:41:23.045Z,3.42
2023-05-03T18:43:52.502Z,3.05
2023-05-03T18:46:20.404Z,3.13
2023-05-03T18:48:48.265Z,4.05
2023-05-03T18:51:15.865Z,3.03
2023-05-03T18:53:43.499Z,3.90
2023-05-03T18:56:11.043Z,4.07
2023-05-03T18:58:38.805Z,3.10
2023-05-03T19:01:07.722Z,3.75
2023-05-03T19:03:36.097Z,3.83
2023-05-03T19:06:07.440Z,3.15
2023-05-03T19:08:35.436Z,2.85
2023-05-03T19:11:09.788Z,4.80
2023-05-03T19:16:04.930Z,2.90
2023-05-03T19:18:34.001Z,2.95
2023-05-03T19:21:01.551Z,3.10
2023-05-03T19:23:29.047Z,3.00
2023-05-03T19:25:56.830Z,4.05
2023-05-03T19:28:24.322Z,2.75
2023-05-03T19:30:52.403Z,3.40
2023-05-03T19:33:19.984Z,2.80
2023-05-03T19:35:48.937Z,2.90
2023-05-03T19:38:16.437Z,2.58
2023-05-03T19:40:55.756Z,2.58
2023-05-03T19:43:23.265Z,2.72
2023-05-03T19:45:51.378Z,3.30
2023-05-03T19:48:19.115Z,2.30
2023-05-03T19:50:47.588Z,2.20
2023-05-03T19:53:16.542Z,2.42
2023-05-03T19:55:46.401Z,2.20
2023-05-03T19:58:13.970Z,2.65
2023-05-03T20:01:06.155Z,3.22
2023-05-03T20:03:34.117Z,2.70
2023-05-03T20:06:01.737Z,2.40
2023-05-03T20:08:31.403Z,2.30
2023-05-03T20:10:58.992Z,2.08
2023-05-03T20:13:27.658Z,2.47
2023-05-03T20:15:55.548Z,2.70
2023-05-03T20:18:23.273Z,2.85
2023-05-03T20:20:50.852Z,3.47
2023-05-03T20:23:18.350Z,3.03
2023-05-03T20:25:47.379Z,2.63
2023-05-03T20:28:14.881Z,3.33
2023-05-03T20:30:42.447Z,2.67
2023-05-03T20:33:10.096Z,3.05
2023-05-03T20:35:37.803Z,3.08
2023-05-03T20:38:05.764Z,3.72
2023-05-03T20:40:34.373Z,3.30
2023-05-03T20:43:03.382Z,3.20
2023-05-03T20:45:31.061Z,2.97
2023-05-03T20:47:58.760Z,3.00
2023-05-03T20:50:26.369Z,3.10
2023-05-03T20:52:54.333Z,3.15
2023-05-03T20:55:21.883Z,2.88
2023-05-03T20:57:49.363Z,2.85
2023-05-03T21:00:23.242Z,3.10
2023-05-03T21:02:53.428Z,2.95
2023-05-03T21:05:21.913Z,3.00
2023-05-03T21:07:49.662Z,2.90
2023-05-03T21:10:17.705Z,2.58
2023-05-03T21:12:45.297Z,2.60
2023-05-03T21:15:16.463Z,2.97
2023-05-03T21:17:45.338Z,2.95
2023-05-03T21:20:13.293Z,2.60
2023-05-03T21:22:40.929Z,2.60
2023-05-03T21:25:09.001Z,2.40
2023-05-03T21:27:36.484Z,2.70
2023-05-03T21:30:04.458Z,2.88
2023-05-03T21:32:33.267Z,3.00
2023-05-03T21:35:02.117Z,2.85
2023-05-03T21:37:29.696Z,2.58
2023-05-03T21:40:02.052Z,2.90
2023-05-03T21:42:30.526Z,3.55
2023-05-03T21:44:58.061Z,2.42
2023-05-03T21:47:25.651Z,2.30
2023-05-03T21:52:46.903Z,2.58
2023-05-03T21:55:14.441Z,2.97
2023-05-03T21:57:41.948Z,2.85
2023-05-03T22:03:05.741Z,3.20
2023-05-03T22:05:33.697Z,2.60
2023-05-03T22:08:02.521Z,2.40
2023-05-03T22:10:30.330Z,2.58
2023-05-03T22:12:57.841Z,2.88
2023-05-03T22:15:25.517Z,2.47
2023-05-03T22:17:53.357Z,2.53
2023-05-03T22:20:21.124Z,2.60
2023-05-03T22:22:48.668Z,2.92
2023-05-03T22:25:24.355Z,3.05
2023-05-03T22:27:51.868Z,2.92
2023-05-03T22:30:21.587Z,2.65
2023-05-03T22:32:49.407Z,2.72
2023-05-03T22:35:17.052Z,2.30
2023-05-03T22:37:44.514Z,2.90
2023-05-03T22:43:06.101Z,2.45
2023-05-03T22:45:33.672Z,2.60
2023-05-03T22:48:01.463Z,3.10
2023-05-03T22:50:29.083Z,2.47
2023-05-03T22:52:56.574Z,3.17
2023-05-03T22:55:24.228Z,3.13
2023-05-03T22:57:52.160Z,2.83
2023-05-03T23:00:21.627Z,2.75
2023-05-03T23:02:49.252Z,2.75
2023-05-03T23:05:17.091Z,2.72
2023-05-03T23:07:45.112Z,2.88
2023-05-03T23:10:12.820Z,3.15
2023-05-03T23:12:40.829Z,2.38
2023-05-03T23:15:08.931Z,2.55
2023-05-03T23:17:38.016Z,2.60
2023-05-03T23:20:06.774Z,3.33
2023-05-03T23:22:34.818Z,2.50
2023-05-03T23:25:02.616Z,2.70
2023-05-03T23:30:22.234Z,2.65
2023-05-03T23:32:52.529Z,2.33
2023-05-03T23:35:20.788Z,2.90
2023-05-03T23:37:48.448Z,2.55
2023-05-03T23:40:16.086Z,3.15
2023-05-03T23:42:43.629Z,3.05
2023-05-03T23:48:05.364Z,2.83
2023-05-03T23:50:33.038Z,2.88
2023-05-03T23:53:01.677Z,3.25
2023-05-03T23:55:29.548Z,2.47
2023-05-03T23:57:57.058Z,2.65
